sensor_id;sensor_type;location;lat;lon;timestamp;P1;durP1;ratioP1;P2;durP2;ratioP2
31638;SDS011;18248;51.522;7.020;2023-07-31T00:00:04;10.82;;;4.03;;
31638;SDS011;18248;51.522;7.020;2023-07-31T00:03:03;9.70;;;4.10;;
31638;SDS011;18248;51.522;7.020;2023-07-31T00:06:03;8.50;;;3.70;;
31638;SDS011;18248;51.522;7.020;2023-07-31T00:09:02;7.82;;;3.67;;
31638;SDS011;18248;51.522;7.020;2023-07-31T00:12:00;9.40;;;4.50;;
31638;SDS011;18248;51.522;7.020;2023-07-31T00:14:59;12.85;;;5.90;;
31638;SDS011;18248;51.522;7.020;2023-07-31T00:17:58;12.18;;;5.63;;
31638;SDS011;18248;51.522;7.020;2023-07-31T00:20:56;13.43;;;5.40;;
31638;SDS011;18248;51.522;7.020;2023-07-31T00:23:55;13.73;;;5.32;;
31638;SDS011;18248;51.522;7.020;2023-07-31T00:26:53;14.27;;;5.35;;
31638;SDS011;18248;51.522;7.020;2023-07-31T00:29:53;18.30;;;5.93;;
31638;SDS011;18248;51.522;7.020;2023-07-31T00:32:51;14.25;;;5.82;;
31638;SDS011;18248;51.522;7.020;2023-07-31T00:35:50;21.70;;;6.07;;
31638;SDS011;18248;51.522;7.020;2023-07-31T00:38:49;19.98;;;6.32;;
31638;SDS011;18248;51.522;7.020;2023-07-31T00:41:47;15.20;;;5.72;;
31638;SDS011;18248;51.522;7.020;2023-07-31T00:44:46;21.35;;;5.75;;
31638;SDS011;18248;51.522;7.020;2023-07-31T00:47:44;18.98;;;6.35;;
31638;SDS011;18248;51.522;7.020;2023-07-31T00:50:43;19.25;;;6.38;;
31638;SDS011;18248;51.522;7.020;2023-07-31T00:53:42;20.65;;;7.00;;
31638;SDS011;18248;51.522;7.020;2023-07-31T00:56:41;21.77;;;6.55;;
31638;SDS011;18248;51.522;7.020;2023-07-31T00:59:42;18.95;;;6.43;;
31638;SDS011;18248;51.522;7.020;2023-07-31T01:02:41;15.60;;;6.20;;
31638;SDS011;18248;51.522;7.020;2023-07-31T01:05:43;19.17;;;6.38;;
31638;SDS011;18248;51.522;7.020;2023-07-31T01:12:06;20.83;;;6.80;;
31638;SDS011;18248;51.522;7.020;2023-07-31T01:15:07;18.27;;;6.10;;
31638;SDS011;18248;51.522;7.020;2023-07-31T01:18:09;24.53;;;6.03;;
31638;SDS011;18248;51.522;7.020;2023-07-31T01:21:56;22.88;;;8.30;;
31638;SDS011;18248;51.522;7.020;2023-07-31T01:24:36;19.38;;;6.70;;
31638;SDS011;18248;51.522;7.020;2023-07-31T01:27:56;23.00;;;6.30;;
31638;SDS011;18248;51.522;7.020;2023-07-31T01:30:59;19.33;;;6.18;;
31638;SDS011;18248;51.522;7.020;2023-07-31T01:34:01;26.70;;;5.90;;
31638;SDS011;18248;51.522;7.020;2023-07-31T01:36:59;21.05;;;6.88;;
31638;SDS011;18248;51.522;7.020;2023-07-31T01:39:58;24.50;;;7.00;;
31638;SDS011;18248;51.522;7.020;2023-07-31T01:42:57;22.40;;;6.80;;
31638;SDS011;18248;51.522;7.020;2023-07-31T01:45:55;27.10;;;6.85;;
31638;SDS011;18248;51.522;7.020;2023-07-31T01:48:54;29.40;;;7.22;;
31638;SDS011;18248;51.522;7.020;2023-07-31T01:51:52;27.40;;;6.93;;
31638;SDS011;18248;51.522;7.020;2023-07-31T01:54:51;18.45;;;6.53;;
31638;SDS011;18248;51.522;7.020;2023-07-31T01:57:50;21.58;;;6.65;;
31638;SDS011;18248;51.522;7.020;2023-07-31T02:00:50;22.67;;;7.15;;
31638;SDS011;18248;51.522;7.020;2023-07-31T02:03:49;24.20;;;5.97;;
31638;SDS011;18248;51.522;7.020;2023-07-31T02:06:47;20.45;;;7.00;;
31638;SDS011;18248;51.522;7.020;2023-07-31T02:09:46;24.50;;;5.90;;
31638;SDS011;18248;51.522;7.020;2023-07-31T02:12:45;19.08;;;6.53;;
31638;SDS011;18248;51.522;7.020;2023-07-31T02:15:45;18.77;;;6.43;;
31638;SDS011;18248;51.522;7.020;2023-07-31T02:18:43;24.77;;;7.75;;
31638;SDS011;18248;51.522;7.020;2023-07-31T02:21:42;17.55;;;5.78;;
31638;SDS011;18248;51.522;7.020;2023-07-31T02:24:41;18.75;;;5.85;;
31638;SDS011;18248;51.522;7.020;2023-07-31T02:27:40;21.88;;;7.13;;
31638;SDS011;18248;51.522;7.020;2023-07-31T02:30:39;21.67;;;6.28;;
31638;SDS011;18248;51.522;7.020;2023-07-31T02:33:37;25.30;;;6.53;;
31638;SDS011;18248;51.522;7.020;2023-07-31T02:36:36;22.55;;;6.15;;
31638;SDS011;18248;51.522;7.020;2023-07-31T02:39:34;17.88;;;6.05;;
31638;SDS011;18248;51.522;7.020;2023-07-31T02:42:33;21.95;;;6.47;;
31638;SDS011;18248;51.522;7.020;2023-07-31T02:45:31;16.00;;;5.88;;
31638;SDS011;18248;51.522;7.020;2023-07-31T02:48:30;17.25;;;6.07;;
31638;SDS011;18248;51.522;7.020;2023-07-31T02:51:29;22.25;;;6.15;;
31638;SDS011;18248;51.522;7.020;2023-07-31T02:54:27;18.60;;;5.85;;
31638;SDS011;18248;51.522;7.020;2023-07-31T02:57:26;27.55;;;5.72;;
31638;SDS011;18248;51.522;7.020;2023-07-31T03:00:24;24.98;;;6.40;;
31638;SDS011;18248;51.522;7.020;2023-07-31T03:03:23;20.95;;;5.68;;
31638;SDS011;18248;51.522;7.020;2023-07-31T03:06:22;23.50;;;5.97;;
31638;SDS011;18248;51.522;7.020;2023-07-31T03:09:21;19.27;;;6.65;;
31638;SDS011;18248;51.522;7.020;2023-07-31T03:12:20;23.63;;;6.22;;
31638;SDS011;18248;51.522;7.020;2023-07-31T03:15:18;17.90;;;6.15;;
31638;SDS011;18248;51.522;7.020;2023-07-31T03:18:18;26.58;;;6.72;;
31638;SDS011;18248;51.522;7.020;2023-07-31T03:21:16;22.08;;;6.10;;
31638;SDS011;18248;51.522;7.020;2023-07-31T03:24:15;20.63;;;6.05;;
31638;SDS011;18248;51.522;7.020;2023-07-31T03:27:13;21.48;;;7.15;;
31638;SDS011;18248;51.522;7.020;2023-07-31T03:30:12;30.70;;;6.95;;
31638;SDS011;18248;51.522;7.020;2023-07-31T03:33:10;20.73;;;7.25;;
31638;SDS011;18248;51.522;7.020;2023-07-31T03:36:09;20.35;;;6.40;;
31638;SDS011;18248;51.522;7.020;2023-07-31T03:39:08;24.58;;;7.18;;
31638;SDS011;18248;51.522;7.020;2023-07-31T03:42:07;22.27;;;5.70;;
31638;SDS011;18248;51.522;7.020;2023-07-31T03:45:06;22.48;;;6.85;;
31638;SDS011;18248;51.522;7.020;2023-07-31T03:48:05;19.35;;;6.15;;
31638;SDS011;18248;51.522;7.020;2023-07-31T03:51:03;19.83;;;5.55;;
31638;SDS011;18248;51.522;7.020;2023-07-31T03:54:02;21.77;;;6.03;;
31638;SDS011;18248;51.522;7.020;2023-07-31T03:57:00;37.78;;;7.40;;
31638;SDS011;18248;51.522;7.020;2023-07-31T03:59:59;22.52;;;6.25;;
31638;SDS011;18248;51.522;7.020;2023-07-31T04:02:57;25.42;;;6.82;;
31638;SDS011;18248;51.522;7.020;2023-07-31T04:05:56;21.83;;;6.20;;
31638;SDS011;18248;51.522;7.020;2023-07-31T04:08:54;25.25;;;6.47;;
31638;SDS011;18248;51.522;7.020;2023-07-31T04:11:53;22.15;;;6.28;;
31638;SDS011;18248;51.522;7.020;2023-07-31T04:14:52;18.70;;;6.43;;
31638;SDS011;18248;51.522;7.020;2023-07-31T04:17:50;22.63;;;6.05;;
31638;SDS011;18248;51.522;7.020;2023-07-31T04:20:49;22.33;;;6.50;;
31638;SDS011;18248;51.522;7.020;2023-07-31T04:23:48;16.17;;;5.25;;
31638;SDS011;18248;51.522;7.020;2023-07-31T04:26:46;25.13;;;6.78;;
31638;SDS011;18248;51.522;7.020;2023-07-31T04:29:45;13.00;;;5.60;;
31638;SDS011;18248;51.522;7.020;2023-07-31T04:32:45;20.85;;;6.18;;
31638;SDS011;18248;51.522;7.020;2023-07-31T04:35:50;19.55;;;6.53;;
31638;SDS011;18248;51.522;7.020;2023-07-31T04:38:50;19.73;;;6.28;;
31638;SDS011;18248;51.522;7.020;2023-07-31T04:41:48;26.83;;;7.05;;
31638;SDS011;18248;51.522;7.020;2023-07-31T04:44:47;22.75;;;6.00;;
31638;SDS011;18248;51.522;7.020;2023-07-31T04:47:47;22.60;;;7.03;;
31638;SDS011;18248;51.522;7.020;2023-07-31T04:50:45;22.60;;;7.75;;
31638;SDS011;18248;51.522;7.020;2023-07-31T04:53:44;21.67;;;6.60;;
31638;SDS011;18248;51.522;7.020;2023-07-31T04:56:42;18.90;;;6.63;;
31638;SDS011;18248;51.522;7.020;2023-07-31T04:59:42;19.65;;;6.38;;
31638;SDS011;18248;51.522;7.020;2023-07-31T05:02:41;25.33;;;6.82;;
31638;SDS011;18248;51.522;7.020;2023-07-31T05:05:39;16.30;;;6.20;;
31638;SDS011;18248;51.522;7.020;2023-07-31T05:08:38;16.95;;;5.82;;
31638;SDS011;18248;51.522;7.020;2023-07-31T05:11:36;18.30;;;6.22;;
31638;SDS011;18248;51.522;7.020;2023-07-31T05:14:35;19.33;;;6.38;;
31638;SDS011;18248;51.522;7.020;2023-07-31T05:17:33;18.33;;;5.68;;
31638;SDS011;18248;51.522;7.020;2023-07-31T05:20:33;16.73;;;5.63;;
31638;SDS011;18248;51.522;7.020;2023-07-31T05:23:31;17.85;;;5.85;;
31638;SDS011;18248;51.522;7.020;2023-07-31T05:26:31;16.90;;;6.15;;
31638;SDS011;18248;51.522;7.020;2023-07-31T05:29:29;13.48;;;5.55;;
31638;SDS011;18248;51.522;7.020;2023-07-31T05:32:28;15.18;;;5.45;;
31638;SDS011;18248;51.522;7.020;2023-07-31T05:35:26;22.33;;;6.05;;
31638;SDS011;18248;51.522;7.020;2023-07-31T05:38:25;12.82;;;5.22;;
31638;SDS011;18248;51.522;7.020;2023-07-31T05:41:24;12.88;;;5.28;;
31638;SDS011;18248;51.522;7.020;2023-07-31T05:44:22;16.30;;;5.20;;
31638;SDS011;18248;51.522;7.020;2023-07-31T05:47:21;17.40;;;5.60;;
31638;SDS011;18248;51.522;7.020;2023-07-31T05:50:19;12.20;;;5.80;;
31638;SDS011;18248;51.522;7.020;2023-07-31T05:53:18;18.98;;;6.47;;
31638;SDS011;18248;51.522;7.020;2023-07-31T05:56:16;15.52;;;6.40;;
31638;SDS011;18248;51.522;7.020;2023-07-31T05:59:15;15.77;;;6.20;;
31638;SDS011;18248;51.522;7.020;2023-07-31T06:02:14;18.63;;;5.82;;
31638;SDS011;18248;51.522;7.020;2023-07-31T06:05:13;15.73;;;6.22;;
31638;SDS011;18248;51.522;7.020;2023-07-31T06:08:12;16.33;;;6.15;;
31638;SDS011;18248;51.522;7.020;2023-07-31T06:11:11;17.05;;;6.20;;
31638;SDS011;18248;51.522;7.020;2023-07-31T06:14:10;15.57;;;5.68;;
31638;SDS011;18248;51.522;7.020;2023-07-31T06:17:08;13.48;;;6.20;;
31638;SDS011;18248;51.522;7.020;2023-07-31T06:20:07;17.10;;;6.57;;
31638;SDS011;18248;51.522;7.020;2023-07-31T06:23:08;14.57;;;6.05;;
31638;SDS011;18248;51.522;7.020;2023-07-31T06:26:06;15.43;;;6.20;;
31638;SDS011;18248;51.522;7.020;2023-07-31T06:29:05;19.45;;;6.32;;
31638;SDS011;18248;51.522;7.020;2023-07-31T06:32:03;12.77;;;5.70;;
31638;SDS011;18248;51.522;7.020;2023-07-31T06:35:02;15.65;;;6.93;;
31638;SDS011;18248;51.522;7.020;2023-07-31T06:38:02;16.02;;;6.10;;
31638;SDS011;18248;51.522;7.020;2023-07-31T06:41:00;15.40;;;6.63;;
31638;SDS011;18248;51.522;7.020;2023-07-31T06:43:59;15.93;;;7.00;;
31638;SDS011;18248;51.522;7.020;2023-07-31T06:46:57;18.13;;;6.32;;
31638;SDS011;18248;51.522;7.020;2023-07-31T06:49:56;23.55;;;6.47;;
31638;SDS011;18248;51.522;7.020;2023-07-31T06:52:54;18.15;;;6.60;;
31638;SDS011;18248;51.522;7.020;2023-07-31T06:55:53;23.00;;;7.03;;
31638;SDS011;18248;51.522;7.020;2023-07-31T06:58:52;13.32;;;6.47;;
31638;SDS011;18248;51.522;7.020;2023-07-31T07:01:52;18.30;;;6.68;;
31638;SDS011;18248;51.522;7.020;2023-07-31T07:04:51;16.05;;;6.22;;
31638;SDS011;18248;51.522;7.020;2023-07-31T07:07:49;13.98;;;6.43;;
31638;SDS011;18248;51.522;7.020;2023-07-31T07:10:50;11.00;;;5.28;;
31638;SDS011;18248;51.522;7.020;2023-07-31T07:13:48;14.27;;;6.45;;
31638;SDS011;18248;51.522;7.020;2023-07-31T07:16:50;15.10;;;6.60;;
31638;SDS011;18248;51.522;7.020;2023-07-31T07:19:49;15.65;;;6.65;;
31638;SDS011;18248;51.522;7.020;2023-07-31T07:22:47;13.32;;;5.55;;
31638;SDS011;18248;51.522;7.020;2023-07-31T07:25:46;16.63;;;6.63;;
31638;SDS011;18248;51.522;7.020;2023-07-31T07:28:45;21.30;;;7.32;;
31638;SDS011;18248;51.522;7.020;2023-07-31T07:31:44;14.02;;;6.20;;
31638;SDS011;18248;51.522;7.020;2023-07-31T07:34:43;11.30;;;5.97;;
31638;SDS011;18248;51.522;7.020;2023-07-31T07:37:41;11.77;;;5.93;;
31638;SDS011;18248;51.522;7.020;2023-07-31T07:40:40;11.68;;;5.65;;
31638;SDS011;18248;51.522;7.020;2023-07-31T07:43:38;16.15;;;5.63;;
31638;SDS011;18248;51.522;7.020;2023-07-31T07:46:37;13.07;;;5.30;;
31638;SDS011;18248;51.522;7.020;2023-07-31T07:49:35;10.00;;;5.65;;
31638;SDS011;18248;51.522;7.020;2023-07-31T07:52:34;11.93;;;5.05;;
31638;SDS011;18248;51.522;7.020;2023-07-31T07:55:32;10.93;;;5.60;;
31638;SDS011;18248;51.522;7.020;2023-07-31T07:58:32;15.70;;;5.97;;
31638;SDS011;18248;51.522;7.020;2023-07-31T08:01:31;12.77;;;5.07;;
31638;SDS011;18248;51.522;7.020;2023-07-31T08:04:29;15.75;;;5.75;;
31638;SDS011;18248;51.522;7.020;2023-07-31T08:07:28;11.32;;;5.22;;
31638;SDS011;18248;51.522;7.020;2023-07-31T08:10:26;11.80;;;5.10;;
31638;SDS011;18248;51.522;7.020;2023-07-31T08:13:25;10.70;;;5.60;;
31638;SDS011;18248;51.522;7.020;2023-07-31T08:16:23;12.32;;;6.25;;
31638;SDS011;18248;51.522;7.020;2023-07-31T08:19:22;10.15;;;4.60;;
31638;SDS011;18248;51.522;7.020;2023-07-31T08:22:21;10.82;;;4.25;;
31638;SDS011;18248;51.522;7.020;2023-07-31T08:25:20;12.60;;;4.55;;
31638;SDS011;18248;51.522;7.020;2023-07-31T08:28:19;10.25;;;4.40;;
31638;SDS011;18248;51.522;7.020;2023-07-31T08:31:18;11.73;;;4.18;;
31638;SDS011;18248;51.522;7.020;2023-07-31T08:34:17;8.75;;;3.95;;
31638;SDS011;18248;51.522;7.020;2023-07-31T08:37:17;10.80;;;3.70;;
31638;SDS011;18248;51.522;7.020;2023-07-31T08:40:16;7.00;;;4.03;;
31638;SDS011;18248;51.522;7.020;2023-07-31T08:43:16;9.65;;;3.63;;
31638;SDS011;18248;51.522;7.020;2023-07-31T08:46:16;6.55;;;3.47;;
31638;SDS011;18248;51.522;7.020;2023-07-31T08:49:15;9.05;;;4.15;;
31638;SDS011;18248;51.522;7.020;2023-07-31T08:52:16;9.32;;;3.80;;
31638;SDS011;18248;51.522;7.020;2023-07-31T08:55:14;14.90;;;4.22;;
31638;SDS011;18248;51.522;7.020;2023-07-31T08:58:13;8.45;;;3.72;;
31638;SDS011;18248;51.522;7.020;2023-07-31T09:01:12;8.27;;;3.90;;
31638;SDS011;18248;51.522;7.020;2023-07-31T09:04:12;9.10;;;4.00;;
31638;SDS011;18248;51.522;7.020;2023-07-31T09:07:13;11.75;;;3.67;;
31638;SDS011;18248;51.522;7.020;2023-07-31T09:10:13;9.02;;;3.90;;
31638;SDS011;18248;51.522;7.020;2023-07-31T09:13:12;7.20;;;2.90;;
31638;SDS011;18248;51.522;7.020;2023-07-31T09:16:11;6.10;;;3.20;;
31638;SDS011;18248;51.522;7.020;2023-07-31T09:19:10;6.75;;;3.13;;
31638;SDS011;18248;51.522;7.020;2023-07-31T09:22:08;6.05;;;3.08;;
31638;SDS011;18248;51.522;7.020;2023-07-31T09:25:13;8.75;;;3.58;;
31638;SDS011;18248;51.522;7.020;2023-07-31T09:28:22;7.95;;;3.53;;
31638;SDS011;18248;51.522;7.020;2023-07-31T09:31:33;6.88;;;3.60;;
31638;SDS011;18248;51.522;7.020;2023-07-31T09:34:39;9.05;;;3.42;;
31638;SDS011;18248;51.522;7.020;2023-07-31T09:37:38;11.60;;;3.92;;
31638;SDS011;18248;51.522;7.020;2023-07-31T09:40:37;8.00;;;3.50;;
31638;SDS011;18248;51.522;7.020;2023-07-31T09:43:36;8.30;;;3.30;;
31638;SDS011;18248;51.522;7.020;2023-07-31T09:46:36;8.93;;;3.38;;
31638;SDS011;18248;51.522;7.020;2023-07-31T09:49:35;7.03;;;3.47;;
31638;SDS011;18248;51.522;7.020;2023-07-31T09:52:36;7.45;;;3.42;;
31638;SDS011;18248;51.522;7.020;2023-07-31T09:55:37;6.07;;;3.40;;
31638;SDS011;18248;51.522;7.020;2023-07-31T09:58:38;9.40;;;3.42;;
31638;SDS011;18248;51.522;7.020;2023-07-31T10:01:37;5.40;;;2.88;;
31638;SDS011;18248;51.522;7.020;2023-07-31T10:04:38;4.60;;;2.55;;
31638;SDS011;18248;51.522;7.020;2023-07-31T10:07:37;7.63;;;2.85;;
31638;SDS011;18248;51.522;7.020;2023-07-31T10:10:37;7.15;;;3.17;;
31638;SDS011;18248;51.522;7.020;2023-07-31T10:13:38;6.85;;;3.10;;
31638;SDS011;18248;51.522;7.020;2023-07-31T10:16:39;4.15;;;2.88;;
31638;SDS011;18248;51.522;7.020;2023-07-31T10:19:38;4.65;;;2.30;;
31638;SDS011;18248;51.522;7.020;2023-07-31T10:22:38;3.83;;;2.45;;
31638;SDS011;18248;51.522;7.020;2023-07-31T10:25:37;6.43;;;2.53;;
31638;SDS011;18248;51.522;7.020;2023-07-31T10:28:36;6.28;;;2.47;;
31638;SDS011;18248;51.522;7.020;2023-07-31T10:31:36;4.05;;;2.65;;
31638;SDS011;18248;51.522;7.020;2023-07-31T10:34:36;6.63;;;3.25;;
31638;SDS011;18248;51.522;7.020;2023-07-31T10:37:39;4.80;;;3.25;;
31638;SDS011;18248;51.522;7.020;2023-07-31T10:40:40;7.80;;;4.57;;
31638;SDS011;18248;51.522;7.020;2023-07-31T10:43:39;6.53;;;4.07;;
31638;SDS011;18248;51.522;7.020;2023-07-31T10:46:37;7.95;;;4.53;;
31638;SDS011;18248;51.522;7.020;2023-07-31T10:49:37;8.82;;;5.00;;
31638;SDS011;18248;51.522;7.020;2023-07-31T10:52:37;9.45;;;5.13;;
31638;SDS011;18248;51.522;7.020;2023-07-31T10:55:42;9.07;;;5.03;;
31638;SDS011;18248;51.522;7.020;2023-07-31T10:58:43;8.32;;;5.22;;
31638;SDS011;18248;51.522;7.020;2023-07-31T11:01:52;9.35;;;4.90;;
31638;SDS011;18248;51.522;7.020;2023-07-31T11:05:07;8.82;;;5.30;;
31638;SDS011;18248;51.522;7.020;2023-07-31T11:08:14;7.50;;;4.75;;
31638;SDS011;18248;51.522;7.020;2023-07-31T11:11:16;8.60;;;5.07;;
31638;SDS011;18248;51.522;7.020;2023-07-31T11:14:15;9.98;;;4.43;;
31638;SDS011;18248;51.522;7.020;2023-07-31T11:17:14;10.25;;;4.07;;
31638;SDS011;18248;51.522;7.020;2023-07-31T11:20:12;10.45;;;4.32;;
31638;SDS011;18248;51.522;7.020;2023-07-31T11:23:11;8.68;;;4.25;;
31638;SDS011;18248;51.522;7.020;2023-07-31T11:26:10;7.53;;;4.13;;
31638;SDS011;18248;51.522;7.020;2023-07-31T11:29:12;9.93;;;4.18;;
31638;SDS011;18248;51.522;7.020;2023-07-31T11:32:15;7.10;;;3.50;;
31638;SDS011;18248;51.522;7.020;2023-07-31T11:35:15;6.60;;;3.45;;
31638;SDS011;18248;51.522;7.020;2023-07-31T11:38:30;9.32;;;3.88;;
31638;SDS011;18248;51.522;7.020;2023-07-31T11:41:31;10.77;;;4.22;;
31638;SDS011;18248;51.522;7.020;2023-07-31T11:44:37;9.95;;;3.95;;
31638;SDS011;18248;51.522;7.020;2023-07-31T11:47:41;10.02;;;3.88;;
31638;SDS011;18248;51.522;7.020;2023-07-31T11:50:40;10.27;;;3.50;;
31638;SDS011;18248;51.522;7.020;2023-07-31T11:53:42;9.32;;;3.78;;
31638;SDS011;18248;51.522;7.020;2023-07-31T11:56:43;7.82;;;3.33;;
31638;SDS011;18248;51.522;7.020;2023-07-31T11:59:42;11.13;;;3.78;;
31638;SDS011;18248;51.522;7.020;2023-07-31T12:02:41;8.75;;;4.03;;
31638;SDS011;18248;51.522;7.020;2023-07-31T12:05:40;7.03;;;3.58;;
31638;SDS011;18248;51.522;7.020;2023-07-31T12:08:39;7.88;;;3.60;;
31638;SDS011;18248;51.522;7.020;2023-07-31T12:11:44;6.63;;;3.85;;
31638;SDS011;18248;51.522;7.020;2023-07-31T12:14:43;7.35;;;4.00;;
31638;SDS011;18248;51.522;7.020;2023-07-31T12:17:42;7.05;;;3.15;;
31638;SDS011;18248;51.522;7.020;2023-07-31T12:20:41;9.15;;;3.50;;
31638;SDS011;18248;51.522;7.020;2023-07-31T12:23:44;9.00;;;4.10;;
31638;SDS011;18248;51.522;7.020;2023-07-31T12:26:42;10.00;;;3.90;;
31638;SDS011;18248;51.522;7.020;2023-07-31T12:29:44;11.10;;;4.47;;
31638;SDS011;18248;51.522;7.020;2023-07-31T12:32:43;7.03;;;3.78;;
31638;SDS011;18248;51.522;7.020;2023-07-31T12:35:44;8.23;;;3.80;;
31638;SDS011;18248;51.522;7.020;2023-07-31T12:38:44;10.25;;;4.30;;
31638;SDS011;18248;51.522;7.020;2023-07-31T12:41:43;10.10;;;4.60;;
31638;SDS011;18248;51.522;7.020;2023-07-31T12:44:41;6.03;;;3.92;;
31638;SDS011;18248;51.522;7.020;2023-07-31T12:47:40;8.15;;;4.10;;
31638;SDS011;18248;51.522;7.020;2023-07-31T12:50:38;5.90;;;3.40;;
31638;SDS011;18248;51.522;7.020;2023-07-31T12:53:38;4.65;;;3.08;;
31638;SDS011;18248;51.522;7.020;2023-07-31T12:56:37;7.75;;;3.60;;
31638;SDS011;18248;51.522;7.020;2023-07-31T12:59:35;5.30;;;2.88;;
31638;SDS011;18248;51.522;7.020;2023-07-31T13:02:34;7.88;;;4.07;;
31638;SDS011;18248;51.522;7.020;2023-07-31T13:05:33;9.82;;;3.35;;
31638;SDS011;18248;51.522;7.020;2023-07-31T13:08:31;5.70;;;2.80;;
31638;SDS011;18248;51.522;7.020;2023-07-31T13:11:30;6.13;;;3.08;;
31638;SDS011;18248;51.522;7.020;2023-07-31T13:14:28;7.63;;;3.35;;
31638;SDS011;18248;51.522;7.020;2023-07-31T13:17:27;6.03;;;3.10;;
31638;SDS011;18248;51.522;7.020;2023-07-31T13:20:26;3.97;;;2.55;;
31638;SDS011;18248;51.522;7.020;2023-07-31T13:23:24;5.22;;;2.80;;
31638;SDS011;18248;51.522;7.020;2023-07-31T13:26:23;4.32;;;2.45;;
31638;SDS011;18248;51.522;7.020;2023-07-31T13:29:24;7.35;;;3.00;;
31638;SDS011;18248;51.522;7.020;2023-07-31T13:32:25;7.60;;;2.70;;
31638;SDS011;18248;51.522;7.020;2023-07-31T13:35:24;8.07;;;2.97;;
31638;SDS011;18248;51.522;7.020;2023-07-31T13:38:23;6.35;;;2.60;;
31638;SDS011;18248;51.522;7.020;2023-07-31T13:41:21;6.85;;;2.67;;
31638;SDS011;18248;51.522;7.020;2023-07-31T13:44:20;5.78;;;2.63;;
31638;SDS011;18248;51.522;7.020;2023-07-31T13:47:20;4.35;;;2.90;;
31638;SDS011;18248;51.522;7.020;2023-07-31T13:50:18;3.83;;;2.45;;
31638;SDS011;18248;51.522;7.020;2023-07-31T13:53:19;5.63;;;2.85;;
31638;SDS011;18248;51.522;7.020;2023-07-31T13:56:17;5.63;;;2.63;;
31638;SDS011;18248;51.522;7.020;2023-07-31T13:59:16;6.25;;;2.95;;
31638;SDS011;18248;51.522;7.020;2023-07-31T14:02:14;5.55;;;3.08;;
31638;SDS011;18248;51.522;7.020;2023-07-31T14:05:13;4.82;;;3.00;;
31638;SDS011;18248;51.522;7.020;2023-07-31T14:08:11;6.43;;;2.63;;
31638;SDS011;18248;51.522;7.020;2023-07-31T14:11:10;6.90;;;3.78;;
31638;SDS011;18248;51.522;7.020;2023-07-31T14:14:09;8.52;;;3.80;;
31638;SDS011;18248;51.522;7.020;2023-07-31T14:17:08;10.25;;;3.97;;
31638;SDS011;18248;51.522;7.020;2023-07-31T14:20:06;8.77;;;3.63;;
31638;SDS011;18248;51.522;7.020;2023-07-31T14:23:05;6.40;;;3.53;;
31638;SDS011;18248;51.522;7.020;2023-07-31T14:26:04;7.82;;;3.72;;
31638;SDS011;18248;51.522;7.020;2023-07-31T14:29:02;6.03;;;3.28;;
31638;SDS011;18248;51.522;7.020;2023-07-31T14:32:02;7.32;;;3.72;;
31638;SDS011;18248;51.522;7.020;2023-07-31T14:35:00;10.70;;;3.97;;
31638;SDS011;18248;51.522;7.020;2023-07-31T14:37:59;4.53;;;3.10;;
31638;SDS011;18248;51.522;7.020;2023-07-31T14:40:57;10.10;;;3.60;;
31638;SDS011;18248;51.522;7.020;2023-07-31T14:43:56;12.88;;;4.03;;
31638;SDS011;18248;51.522;7.020;2023-07-31T14:46:54;10.32;;;4.20;;
31638;SDS011;18248;51.522;7.020;2023-07-31T14:49:53;8.50;;;4.03;;
31638;SDS011;18248;51.522;7.020;2023-07-31T14:52:51;10.93;;;4.00;;
31638;SDS011;18248;51.522;7.020;2023-07-31T14:55:50;10.15;;;3.78;;
31638;SDS011;18248;51.522;7.020;2023-07-31T14:58:50;12.65;;;4.13;;
31638;SDS011;18248;51.522;7.020;2023-07-31T15:01:48;7.97;;;3.90;;
31638;SDS011;18248;51.522;7.020;2023-07-31T15:04:47;7.18;;;3.60;;
31638;SDS011;18248;51.522;7.020;2023-07-31T15:07:45;7.55;;;3.50;;
31638;SDS011;18248;51.522;7.020;2023-07-31T15:10:44;7.70;;;3.70;;
31638;SDS011;18248;51.522;7.020;2023-07-31T15:13:43;11.18;;;4.43;;
31638;SDS011;18248;51.522;7.020;2023-07-31T15:16:41;6.70;;;4.50;;
31638;SDS011;18248;51.522;7.020;2023-07-31T15:19:40;8.75;;;4.20;;
31638;SDS011;18248;51.522;7.020;2023-07-31T15:22:38;8.55;;;3.90;;
31638;SDS011;18248;51.522;7.020;2023-07-31T15:25:37;7.18;;;4.25;;
31638;SDS011;18248;51.522;7.020;2023-07-31T15:28:35;8.35;;;4.20;;
31638;SDS011;18248;51.522;7.020;2023-07-31T15:31:35;9.90;;;4.25;;
31638;SDS011;18248;51.522;7.020;2023-07-31T15:34:34;9.02;;;4.32;;
31638;SDS011;18248;51.522;7.020;2023-07-31T15:37:32;7.45;;;3.90;;
31638;SDS011;18248;51.522;7.020;2023-07-31T15:40:32;9.85;;;3.90;;
31638;SDS011;18248;51.522;7.020;2023-07-31T15:43:31;8.07;;;4.03;;
31638;SDS011;18248;51.522;7.020;2023-07-31T15:46:30;8.57;;;3.85;;
31638;SDS011;18248;51.522;7.020;2023-07-31T15:49:29;8.05;;;3.97;;
31638;SDS011;18248;51.522;7.020;2023-07-31T15:52:27;8.68;;;4.45;;
31638;SDS011;18248;51.522;7.020;2023-07-31T15:55:26;8.60;;;4.25;;
31638;SDS011;18248;51.522;7.020;2023-07-31T15:58:25;9.27;;;4.63;;
31638;SDS011;18248;51.522;7.020;2023-07-31T16:01:23;7.32;;;4.20;;
31638;SDS011;18248;51.522;7.020;2023-07-31T16:04:22;7.82;;;4.13;;
31638;SDS011;18248;51.522;7.020;2023-07-31T16:07:21;9.95;;;4.55;;
31638;SDS011;18248;51.522;7.020;2023-07-31T16:10:21;11.13;;;4.28;;
31638;SDS011;18248;51.522;7.020;2023-07-31T16:13:21;14.63;;;4.85;;
31638;SDS011;18248;51.522;7.020;2023-07-31T16:16:20;9.88;;;4.07;;
31638;SDS011;18248;51.522;7.020;2023-07-31T16:19:19;11.52;;;5.15;;
31638;SDS011;18248;51.522;7.020;2023-07-31T16:22:17;21.08;;;5.60;;
31638;SDS011;18248;51.522;7.020;2023-07-31T16:25:16;13.90;;;5.30;;
31638;SDS011;18248;51.522;7.020;2023-07-31T16:28:15;10.50;;;4.95;;
31638;SDS011;18248;51.522;7.020;2023-07-31T16:31:14;8.73;;;5.25;;
31638;SDS011;18248;51.522;7.020;2023-07-31T16:34:13;12.77;;;5.30;;
31638;SDS011;18248;51.522;7.020;2023-07-31T16:37:11;11.90;;;5.43;;
31638;SDS011;18248;51.522;7.020;2023-07-31T16:40:11;12.13;;;5.03;;
31638;SDS011;18248;51.522;7.020;2023-07-31T16:43:11;15.57;;;5.07;;
31638;SDS011;18248;51.522;7.020;2023-07-31T16:46:11;10.60;;;5.10;;
31638;SDS011;18248;51.522;7.020;2023-07-31T16:49:10;9.05;;;4.45;;
31638;SDS011;18248;51.522;7.020;2023-07-31T16:52:08;8.52;;;4.57;;
31638;SDS011;18248;51.522;7.020;2023-07-31T16:55:07;9.05;;;4.40;;
31638;SDS011;18248;51.522;7.020;2023-07-31T16:58:06;9.23;;;3.92;;
31638;SDS011;18248;51.522;7.020;2023-07-31T17:01:04;14.35;;;5.60;;
31638;SDS011;18248;51.522;7.020;2023-07-31T17:04:03;11.93;;;4.55;;
31638;SDS011;18248;51.522;7.020;2023-07-31T17:07:02;8.68;;;4.47;;
31638;SDS011;18248;51.522;7.020;2023-07-31T17:10:00;7.10;;;4.35;;
31638;SDS011;18248;51.522;7.020;2023-07-31T17:12:59;7.25;;;4.60;;
31638;SDS011;18248;51.522;7.020;2023-07-31T17:15:57;6.95;;;3.63;;
31638;SDS011;18248;51.522;7.020;2023-07-31T17:18:56;10.70;;;4.65;;
31638;SDS011;18248;51.522;7.020;2023-07-31T17:21:54;8.45;;;3.45;;
31638;SDS011;18248;51.522;7.020;2023-07-31T17:24:53;7.28;;;3.33;;
31638;SDS011;18248;51.522;7.020;2023-07-31T17:27:51;5.05;;;3.28;;
31638;SDS011;18248;51.522;7.020;2023-07-31T17:30:51;7.82;;;3.60;;
31638;SDS011;18248;51.522;7.020;2023-07-31T17:33:50;10.70;;;4.10;;
31638;SDS011;18248;51.522;7.020;2023-07-31T17:36:48;8.80;;;3.50;;
31638;SDS011;18248;51.522;7.020;2023-07-31T17:39:47;7.63;;;3.30;;
31638;SDS011;18248;51.522;7.020;2023-07-31T17:42:45;7.63;;;3.53;;
31638;SDS011;18248;51.522;7.020;2023-07-31T17:45:44;7.53;;;2.80;;
31638;SDS011;18248;51.522;7.020;2023-07-31T17:48:42;4.90;;;2.97;;
31638;SDS011;18248;51.522;7.020;2023-07-31T17:51:41;5.03;;;2.80;;
31638;SDS011;18248;51.522;7.020;2023-07-31T17:54:40;6.85;;;3.28;;